createdAt,value
2022-07-31T00:00:05.258Z,100855.63
2022-07-31T00:02:57.162Z,100865.03
2022-07-31T00:05:46.058Z,100865.09
2022-07-31T00:08:25.608Z,100863.84
2022-07-31T00:11:02.516Z,100862.50
2022-07-31T00:13:56.782Z,100864.56
2022-07-31T00:16:38.737Z,100865.28
2022-07-31T00:19:24.721Z,100867.81
2022-07-31T00:24:57.171Z,100874.59
2022-07-31T00:27:34.074Z,100869.47
2022-07-31T00:30:15.819Z,100864.00
2022-07-31T00:33:12.889Z,100864.44
2022-07-31T00:35:55.903Z,100858.91
2022-07-31T00:38:39.696Z,100862.38
2022-07-31T00:44:12.483Z,100873.81
2022-07-31T00:46:47.142Z,100865.84
2022-07-31T00:49:53.139Z,100860.41
2022-07-31T00:52:25.663Z,100857.75
2022-07-31T00:54:59.779Z,100856.69
2022-07-31T00:57:39.237Z,100849.88
2022-07-31T01:00:16.582Z,100855.91
2022-07-31T01:02:50.369Z,100848.91
2022-07-31T01:08:27.782Z,100842.06
2022-07-31T01:11:24.982Z,100836.81
2022-07-31T01:14:04.204Z,100828.63
2022-07-31T01:16:47.697Z,100831.69
2022-07-31T01:19:37.917Z,100829.09
2022-07-31T01:22:35.355Z,100829.09
2022-07-31T01:25:27.066Z,100832.06
2022-07-31T01:31:24.243Z,100832.63
2022-07-31T01:56:02.370Z,100823.75
2022-07-31T01:59:31.886Z,100817.38
2022-07-31T02:02:52.487Z,100822.41
2022-07-31T02:05:33.242Z,100825.72
2022-07-31T02:08:16.998Z,100828.63
2022-07-31T02:10:54.537Z,100824.97
2022-07-31T02:13:35.171Z,100836.44
2022-07-31T02:16:13.822Z,100828.69
2022-07-31T02:19:04.863Z,100822.69
2022-07-31T02:21:40.227Z,100832.53
2022-07-31T02:24:32.171Z,100828.19
2022-07-31T02:27:58.213Z,100834.78
2022-07-31T02:30:07.958Z,100826.09
2022-07-31T02:32:49.097Z,100830.34
2022-07-31T02:35:44.080Z,100832.13
2022-07-31T02:38:22.512Z,100827.19
2022-07-31T08:07:42.523Z,100893.41
2022-07-31T08:10:33.270Z,100887.66
2022-07-31T09:05:05.339Z,100876.97
2022-07-31T09:07:33.803Z,100891.56
2022-07-31T09:11:20.620Z,100878.31
2022-07-31T09:14:11.828Z,100884.50
2022-07-31T09:22:12.736Z,100890.22
2022-07-31T09:25:41.413Z,100894.22
2022-07-31T09:37:18.994Z,100880.81
2022-07-31T09:41:53.534Z,100885.09
2022-07-31T09:45:04.839Z,100870.81
2022-07-31T09:48:08.274Z,100868.06
2022-07-31T09:55:56.856Z,100872.03
2022-07-31T09:59:00.708Z,100863.22
2022-07-31T10:02:02.227Z,100859.41
2022-07-31T10:04:36.677Z,100849.63
2022-07-31T10:07:31.784Z,100860.03
2022-07-31T10:10:44.402Z,100847.50
2022-07-31T10:13:34.535Z,100851.53
2022-07-31T10:16:05.829Z,100849.50
2022-07-31T10:19:29.106Z,100839.03
2022-07-31T12:26:56.081Z,100739.03
2022-07-31T12:29:33.556Z,100738.28
2022-07-31T12:32:56.711Z,100729.22
2022-07-31T12:36:14.726Z,100737.00
2022-07-31T12:43:50.023Z,100729.88
2022-07-31T13:17:48.065Z,100694.84
2022-07-31T13:37:06.516Z,100676.09
2022-07-31T14:41:16.201Z,100618.06
2022-07-31T15:04:04.856Z,100611.50
2022-07-31T15:11:09.364Z,100604.25
2022-07-31T15:17:43.190Z,100606.72
2022-07-31T15:21:17.147Z,100601.91
2022-07-31T15:51:29.696Z,100598.13
2022-07-31T15:54:19.326Z,100591.44
2022-07-31T15:57:12.874Z,100592.34
2022-07-31T15:59:48.022Z,100584.78
2022-07-31T16:02:21.253Z,100585.75
2022-07-31T16:05:11.005Z,100588.25
2022-07-31T16:08:31.905Z,100581.84
2022-07-31T16:10:34.318Z,100573.56
2022-07-31T16:13:05.639Z,100584.84
2022-07-31T16:15:35.280Z,100575.84
2022-07-31T16:18:10.692Z,100571.44
2022-07-31T16:21:56.693Z,100567.72
2022-07-31T16:24:26.174Z,100562.16
2022-07-31T22:46:52.391Z,100721.03
2022-07-31T22:49:20.765Z,100718.22
2022-07-31T22:51:50.133Z,100712.44
2022-07-31T22:57:06.569Z,100714.16
2022-07-31T22:59:38.220Z,100713.00
2022-07-31T23:02:09.700Z,100714.28
2022-07-31T23:07:20.142Z,100724.16
2022-07-31T23:09:48.159Z,100723.78
2022-07-31T23:12:18.759Z,100720.16
2022-07-31T23:18:28.406Z,100718.25
2022-07-31T23:20:56.689Z,100713.56
2022-07-31T23:23:24.546Z,100709.31
2022-07-31T23:25:52.848Z,100704.41
2022-07-31T23:28:20.474Z,100709.91
2022-07-31T23:30:51.434Z,100709.91
2022-07-31T23:33:23.178Z,100712.78
2022-07-31T23:35:51.109Z,100718.06
2022-07-31T23:38:19.979Z,100715.59
2022-07-31T23:40:56.518Z,100712.38
2022-07-31T23:43:28.610Z,100709.50
2022-07-31T23:45:59.023Z,100712.50
2022-07-31T23:48:59.992Z,100714.16
2022-07-31T23:51:29.937Z,100710.06
2022-07-31T23:56:53.014Z,100711.50
2022-07-31T23:59:24.781Z,100704.06
